Time;durP1;ratioP1;P1;durP2;ratioP2;P2;SDS_P1;SDS_P2;PMS_P1;PMS_P2;Temp;Humidity;BMP_temperature;BMP_pressure;BME280_temperature;BME280_humidity;BME280_pressure;Samples;Min_cycle;Max_cycle;Signal;HPM_P1;HPM_P2
2022/11/16 00:00:22;;;;;;;0.95;0.60;;;20.60;45.60;;;;;;4134462;28;20046;-53
2022/11/16 00:02:46;;;;;;;1.90;0.73;;;20.60;45.60;;;;;;4130730;28;20065;-56
2022/11/16 00:05:09;;;;;;;1.23;0.57;;;20.60;45.60;;;;;;4132771;28;20143;-55
2022/11/16 00:07:32;;;;;;;1.75;0.93;;;20.60;45.60;;;;;;4135952;28;20533;-55
2022/11/16 00:09:55;;;;;;;0.50;0.50;;;20.60;45.60;;;;;;4135560;28;20053;-55
2022/11/16 00:12:17;;;;;;;1.90;0.60;;;20.60;45.60;;;;;;4133494;28;20056;-55
2022/11/16 00:14:40;;;;;;;0.88;0.70;;;20.60;45.70;;;;;;4132652;28;20569;-56
2022/11/16 00:17:03;;;;;;;1.95;0.77;;;20.60;45.50;;;;;;4132902;28;20088;-55
2022/11/16 00:19:26;;;;;;;0.50;0.43;;;20.60;45.40;;;;;;4130906;28;20116;-55
2022/11/16 00:21:49;;;;;;;1.58;0.82;;;20.60;45.60;;;;;;4129727;28;20038;-53
2022/11/16 00:24:14;;;;;;;2.08;0.77;;;20.60;45.60;;;;;;4133054;28;20129;-55
2022/11/16 00:26:36;;;;;;;1.30;0.47;;;20.70;45.50;;;;;;4135906;28;20053;-52
2022/11/16 00:28:59;;;;;;;0.52;0.47;;;20.70;45.50;;;;;;4132552;28;20045;-56
2022/11/16 00:31:22;;;;;;;1.50;0.65;;;20.70;45.50;;;;;;4133152;28;20045;-55
2022/11/16 00:33:45;;;;;;;1.35;0.60;;;20.70;45.70;;;;;;4113314;28;20043;-54
2022/11/16 00:36:11;;;;;;;1.03;0.67;;;20.70;45.60;;;;;;4125654;28;20388;-54
2022/11/16 00:38:33;;;;;;;0.88;0.60;;;20.70;45.60;;;;;;4131867;28;20515;-56
2022/11/16 00:40:56;;;;;;;1.13;0.60;;;20.70;45.80;;;;;;4127585;28;20077;-56
2022/11/16 00:43:19;;;;;;;0.95;0.47;;;20.80;45.70;;;;;;4131193;28;20464;-52
2022/11/16 00:45:43;;;;;;;3.63;0.85;;;20.80;45.60;;;;;;4131181;28;20040;-54
2022/11/16 00:48:06;;;;;;;1.45;0.52;;;20.80;45.70;;;;;;4130984;28;20042;-56
2022/11/16 00:50:28;;;;;;;0.82;0.55;;;20.80;45.70;;;;;;4128415;28;20058;-53
2022/11/16 00:52:52;;;;;;;0.40;0.40;;;20.80;45.60;;;;;;4132882;28;20088;-53
2022/11/16 00:55:14;;;;;;;1.05;0.47;;;20.80;45.60;;;;;;4133162;28;20042;-58
2022/11/16 00:57:37;;;;;;;2.10;0.55;;;20.80;45.50;;;;;;4134902;28;20435;-53
2022/11/16 00:59:59;;;;;;;0.90;0.50;;;20.80;45.60;;;;;;4132924;28;20140;-55
2022/11/16 01:02:22;;;;;;;0.95;0.50;;;20.80;45.60;;;;;;4134059;28;20529;-56
2022/11/16 01:04:44;;;;;;;0.55;0.52;;;20.80;45.50;;;;;;4134294;28;20128;-56
2022/11/16 01:07:07;;;;;;;0.90;0.50;;;20.90;45.60;;;;;;4130652;28;20046;-56
2022/11/16 01:09:30;;;;;;;0.40;0.40;;;20.80;45.40;;;;;;4128458;28;20038;-56
2022/11/16 01:12:11;;;;;;;0.98;0.30;;;20.90;45.60;;;;;;4131722;28;20125;-54
2022/11/16 01:14:35;;;;;;;0.85;0.40;;;20.90;45.50;;;;;;4133681;28;20118;-52
2022/11/16 01:16:58;;;;;;;0.65;0.47;;;20.90;45.60;;;;;;4127025;28;20081;-53
2022/11/16 01:19:20;;;;;;;2.20;0.63;;;20.90;45.50;;;;;;4131131;28;20628;-54
2022/11/16 01:21:43;;;;;;;0.65;0.50;;;20.90;45.50;;;;;;4130125;28;20420;-55
2022/11/16 01:24:06;;;;;;;0.90;0.32;;;20.90;45.40;;;;;;4131214;28;20140;-55
2022/11/16 01:26:28;;;;;;;0.70;0.50;;;20.90;45.40;;;;;;4132806;28;20065;-54
2022/11/16 01:28:52;;;;;;;0.52;0.47;;;20.90;45.40;;;;;;4131126;28;20154;-55
2022/11/16 01:31:15;;;;;;;1.08;0.50;;;20.90;45.40;;;;;;4129182;28;20053;-55
2022/11/16 01:33:37;;;;;;;0.75;0.52;;;20.90;45.40;;;;;;4131825;28;20048;-53
2022/11/16 01:36:00;;;;;;;0.95;0.50;;;20.90;45.40;;;;;;4134456;28;20060;-57
2022/11/16 01:38:22;;;;;;;0.30;0.30;;;20.90;45.30;;;;;;4131223;28;20560;-58
2022/11/16 01:40:45;;;;;;;0.75;0.60;;;20.90;45.30;;;;;;4132654;28;20046;-55
2022/11/16 01:43:18;;;;;;;0.93;0.40;;;20.90;45.20;;;;;;4126900;28;20057;-55
2022/11/16 01:45:41;;;;;;;0.82;0.50;;;20.90;45.20;;;;;;4131790;28;20038;-58
2022/11/16 01:48:04;;;;;;;0.47;0.25;;;20.90;45.20;;;;;;4131590;28;20041;-55
2022/11/16 01:50:27;;;;;;;0.97;0.40;;;20.90;45.20;;;;;;4130480;28;20064;-53
2022/11/16 01:52:56;;;;;;;0.40;0.40;;;20.90;45.30;;;;;;4130900;28;20038;-54
2022/11/16 01:55:19;;;;;;;0.68;0.50;;;20.90;45.10;;;;;;4129566;28;20647;-56
2022/11/16 01:57:45;;;;;;;0.73;0.30;;;20.90;45.30;;;;;;4130700;28;20049;-55
2022/11/16 02:00:09;;;;;;;0.60;0.30;;;20.90;45.20;;;;;;4131597;28;20042;-57
2022/11/16 02:02:32;;;;;;;0.43;0.32;;;21.00;45.20;;;;;;4133377;28;20121;-54
2022/11/16 02:04:56;;;;;;;0.40;0.30;;;20.90;45.10;;;;;;4132588;28;20769;-55
2022/11/16 02:07:29;;;;;;;;;;;21.00;45.20;;;;;;4135633;28;20052;-54
2022/11/16 02:10:18;;;;;;;0.35;0.35;;;21.00;45.20;;;;;;4132860;28;19929;-56
2022/11/16 02:13:10;;;;;;;0.40;0.40;;;21.00;45.10;;;;;;4133036;28;20383;-56
2022/11/16 02:15:44;;;;;;;0.40;0.40;;;21.00;45.10;;;;;;4128674;28;20038;-53
2022/11/16 02:18:24;;;;;;;0.50;0.40;;;21.00;45.20;;;;;;4133933;28;20141;-56
2022/11/16 02:21:27;;;;;;;0.20;0.20;;;21.10;45.20;;;;;;4133371;28;20513;-53
2022/11/16 02:24:01;;;;;;;0.40;0.32;;;21.10;45.10;;;;;;4131708;28;20417;-57
2022/11/16 02:26:42;;;;;;;0.30;0.30;;;21.10;45.10;;;;;;4132553;28;20133;-56
2022/11/16 02:29:11;;;;;;;0.82;0.40;;;21.10;45.20;;;;;;4131990;28;20049;-55
2022/11/16 02:31:39;;;;;;;0.85;0.35;;;21.20;45.20;;;;;;4126612;28;20412;-57
2022/11/16 02:34:03;;;;;;;0.32;0.30;;;21.10;45.10;;;;;;4139261;28;20129;-51
2022/11/16 02:36:26;;;;;;;0.40;0.40;;;21.10;45.10;;;;;;4133811;28;20026;-57
2022/11/16 02:38:57;;;;;;;0.60;0.40;;;21.10;45.20;;;;;;4134945;28;20069;-58
2022/11/16 02:41:23;;;;;;;0.30;0.22;;;21.10;45.20;;;;;;4133260;28;20038;-60
2022/11/16 02:43:53;;;;;;;0.85;0.40;;;21.10;45.20;;;;;;4132996;28;20037;-57
2022/11/16 02:46:26;;;;;;;0.95;0.57;;;21.10;45.20;;;;;;4127915;28;20033;-57
2022/11/16 02:48:55;;;;;;;0.20;0.20;;;21.10;45.20;;;;;;4129178;28;20107;-56
2022/11/16 02:51:20;;;;;;;0.75;0.60;;;21.10;45.20;;;;;;4130094;28;20050;-58
2022/11/16 02:54:11;;;;;;;0.90;0.30;;;21.10;45.30;;;;;;4132438;28;20087;-57
2022/11/16 02:57:03;;;;;;;0.65;0.50;;;21.00;45.30;;;;;;4127616;28;20104;-57
2022/11/16 02:59:48;;;;;;;1.02;0.52;;;21.00;45.40;;;;;;4125653;28;20493;-57
2022/11/16 03:02:29;;;;;;;0.30;0.30;;;21.00;45.30;;;;;;4131025;28;20053;-56
2022/11/16 03:05:13;;;;;;;1.17;0.47;;;21.00;45.40;;;;;;4135893;28;20033;-54
2022/11/16 03:07:47;;;;;;;3.92;0.63;;;21.00;45.40;;;;;;4136169;28;20056;-56
2022/11/16 03:10:09;;;;;;;;;;;21.00;45.50;;;;;;4132096;28;20061;-54
2022/11/16 03:12:35;;;;;;;0.40;0.40;;;21.00;45.50;;;;;;4134606;28;20400;-51
2022/11/16 03:15:05;;;;;;;0.98;0.45;;;21.00;45.60;;;;;;4136515;28;20053;-55
2022/11/16 03:17:40;;;;;;;1.85;0.70;;;21.00;45.60;;;;;;4133610;28;20331;-56
2022/11/16 03:20:14;;;;;;;0.65;0.43;;;21.00;45.60;;;;;;4129326;28;20045;-55
2022/11/16 03:22:51;;;;;;;2.60;0.70;;;21.00;45.70;;;;;;4133835;28;20037;-56
2022/11/16 03:25:18;;;;;;;1.55;0.60;;;21.00;45.60;;;;;;4132900;28;20085;-52
2022/11/16 03:27:50;;;;;;;1.95;0.50;;;21.00;45.60;;;;;;4135245;28;20034;-57
2022/11/16 03:30:25;;;;;;;0.50;0.40;;;21.00;45.60;;;;;;4131942;28;20144;-52
2022/11/16 03:32:52;;;;;;;1.80;0.40;;;21.00;45.70;;;;;;4130537;28;20045;-56
2022/11/16 03:35:44;;;;;;;1.20;0.60;;;21.00;45.70;;;;;;4132353;28;20476;-56
2022/11/16 03:38:09;;;;;;;0.43;0.40;;;21.00;45.70;;;;;;4135562;28;20073;-52
2022/11/16 03:40:34;;;;;;;18.55;0.90;;;21.00;45.60;;;;;;4134032;28;20821;-53
2022/11/16 03:42:58;;;;;;;0.45;0.30;;;21.10;45.60;;;;;;4135982;28;20046;-55
2022/11/16 03:45:21;;;;;;;1.02;0.50;;;21.10;45.40;;;;;;4135635;28;20045;-57
2022/11/16 03:47:45;;;;;;;0.40;0.40;;;21.10;45.40;;;;;;4134629;28;20073;-56
2022/11/16 03:50:08;;;;;;;0.68;0.60;;;21.20;45.40;;;;;;4135187;28;20053;-56
2022/11/16 03:52:31;;;;;;;1.38;0.35;;;21.20;45.30;;;;;;4133045;28;20037;-55
2022/11/16 03:54:53;;;;;;;0.50;0.45;;;21.20;45.30;;;;;;4131224;28;20104;-54
2022/11/16 03:57:17;;;;;;;0.30;0.30;;;21.20;45.30;;;;;;4134341;28;20041;-55
2022/11/16 03:59:39;;;;;;;0.45;0.45;;;21.20;45.20;;;;;;4132395;28;20059;-54
2022/11/16 04:02:02;;;;;;;1.10;0.47;;;21.20;45.20;;;;;;4126079;28;20556;-52
2022/11/16 04:25:55;;;;;;;1.00;0.70;;;21.30;45.20;;;;;;4128247;28;20040;-54
2022/11/16 04:28:26;;;;;;;0.55;0.55;;;21.30;45.30;;;;;;4126979;28;20092;-53
2022/11/16 04:38:59;;;;;;;0.68;0.60;;;21.40;46.30;;;;;;4127986;28;20037;-55
2022/11/16 04:44:03;;;;;;;1.92;0.55;;;21.40;46.40;;;;;;4128491;28;20041;-53
2022/11/16 04:49:06;;;;;;;2.05;0.70;;;21.40;46.40;;;;;;4125404;28;20034;-53
2022/11/16 04:51:29;;;;;;;0.68;0.47;;;21.30;46.40;;;;;;4123145;28;20077;-56
2022/11/16 04:53:51;;;;;;;0.75;0.52;;;21.30;46.40;;;;;;4119435;28;20455;-52
2022/11/16 04:56:14;;;;;;;0.75;0.47;;;21.30;46.40;;;;;;4117719;28;20048;-53
2022/11/16 04:58:36;;;;;;;2.65;0.82;;;21.30;46.40;;;;;;4115998;28;20097;-54
2022/11/16 05:01:00;;;;;;;1.13;0.63;;;21.30;46.50;;;;;;4125231;28;20120;-55
2022/11/16 05:03:22;;;;;;;1.83;0.70;;;21.30;46.50;;;;;;4109811;28;20264;-55
2022/11/16 05:05:45;;;;;;;1.23;0.50;;;21.30;46.60;;;;;;4127641;28;20509;-52
2022/11/16 05:08:07;;;;;;;2.15;0.60;;;21.30;46.60;;;;;;4126698;28;20069;-54
2022/11/16 05:10:30;;;;;;;2.70;0.80;;;21.40;46.50;;;;;;4121081;28;20422;-54
2022/11/16 05:12:52;;;;;;;1.98;0.60;;;21.40;46.50;;;;;;4124833;28;20038;-52
2022/11/16 05:15:16;;;;;;;1.63;0.70;;;21.50;46.50;;;;;;4122574;28;20038;-53
2022/11/16 05:17:39;;;;;;;1.38;0.85;;;21.60;46.50;;;;;;4125913;28;20041;-53
2022/11/16 05:22:42;;;;;;;3.13;1.00;;;21.70;46.40;;;;;;4120285;28;20413;-55
2022/11/16 05:25:06;;;;;;;1.77;0.70;;;21.90;46.30;;;;;;4121823;28;20133;-53
2022/11/16 05:27:29;;;;;;;3.25;1.23;;;21.90;46.20;;;;;;4121105;28;20073;-54
2022/11/16 05:29:53;;;;;;;2.93;1.27;;;21.90;46.00;;;;;;4126614;28;20108;-56
2022/11/16 05:32:16;;;;;;;3.35;1.48;;;21.90;46.10;;;;;;4124145;28;20385;-55
2022/11/16 05:34:39;;;;;;;7.35;2.78;;;21.90;46.30;;;;;;4122886;28;20109;-54
2022/11/16 05:37:02;;;;;;;7.55;2.67;;;21.90;46.60;;;;;;4123698;28;20117;-54
2022/11/16 05:39:25;;;;;;;5.20;2.50;;;21.90;46.60;;;;;;4126905;28;20414;-52
2022/11/16 05:41:47;;;;;;;6.65;2.47;;;22.00;46.70;;;;;;4129118;28;20038;-53
2022/11/16 05:44:10;;;;;;;6.57;2.78;;;22.10;46.50;;;;;;4124274;28;20646;-55
2022/11/16 05:46:33;;;;;;;6.50;2.10;;;22.10;46.30;;;;;;4119477;28;20042;-55
2022/11/16 05:48:55;;;;;;;8.80;2.08;;;22.10;46.20;;;;;;4126028;28;20133;-56
2022/11/16 05:51:18;;;;;;;7.10;2.25;;;22.10;46.20;;;;;;4125306;28;20050;-56
2022/11/16 05:53:41;;;;;;;4.50;1.67;;;22.00;46.20;;;;;;4123089;28;20113;-55
2022/11/16 05:56:04;;;;;;;5.10;1.63;;;22.00;46.20;;;;;;4126505;28;20105;-53
2022/11/16 05:58:26;;;;;;;5.07;1.92;;;21.90;46.30;;;;;;4123105;28;20202;-56
2022/11/16 06:00:50;;;;;;;3.33;1.42;;;21.90;46.30;;;;;;4120985;28;20063;-52
2022/11/16 06:03:12;;;;;;;3.03;1.45;;;21.80;46.30;;;;;;4127561;28;20030;-54
2022/11/16 06:05:36;;;;;;;2.78;1.25;;;21.80;46.50;;;;;;4114936;28;20042;-51
2022/11/16 06:07:58;;;;;;;3.90;1.27;;;21.80;46.60;;;;;;4119413;28;20057;-53
2022/11/16 06:10:21;;;;;;;3.15;1.38;;;21.80;46.70;;;;;;4123195;28;20054;-50
2022/11/16 06:12:43;;;;;;;3.28;0.98;;;21.70;46.70;;;;;;4120319;28;20045;-52
2022/11/16 06:15:09;;;;;;;2.92;1.15;;;21.70;46.80;;;;;;4119214;28;20372;-50
2022/11/16 06:17:32;;;;;;;1.05;0.60;;;21.70;46.80;;;;;;4106705;28;20099;-54
2022/11/16 06:19:55;;;;;;;4.03;1.23;;;21.70;46.80;;;;;;4119755;28;20029;-56
2022/11/16 06:22:17;;;;;;;2.95;1.00;;;21.70;46.80;;;;;;4120986;28;20038;-57
2022/11/16 06:24:40;;;;;;;3.67;0.90;;;21.70;46.70;;;;;;4125979;28;20432;-54
2022/11/16 06:27:02;;;;;;;2.53;0.85;;;21.70;46.60;;;;;;4124359;28;20248;-56
2022/11/16 06:29:25;;;;;;;3.45;1.10;;;21.80;46.60;;;;;;4125738;28;20488;-54
2022/11/16 06:31:47;;;;;;;2.78;0.95;;;21.80;46.40;;;;;;4125152;28;20085;-55
2022/11/16 06:34:11;;;;;;;2.83;0.80;;;21.80;46.30;;;;;;4123781;28;20042;-56
2022/11/16 06:36:34;;;;;;;3.15;0.82;;;21.90;46.30;;;;;;4117839;28;20030;-51
2022/11/16 06:39:00;;;;;;;1.35;0.68;;;21.90;46.90;;;;;;4127496;28;20037;-52
2022/11/16 06:41:22;;;;;;;1.90;0.82;;;21.80;46.20;;;;;;4123337;28;20042;-52
2022/11/16 06:43:45;;;;;;;1.33;0.57;;;21.90;46.20;;;;;;4117624;28;20512;-56
2022/11/16 06:46:07;;;;;;;1.52;0.73;;;21.90;46.10;;;;;;4117286;28;20064;-56
2022/11/16 06:48:32;;;;;;;1.65;0.82;;;21.90;46.10;;;;;;4119124;28;20440;-54
2022/11/16 06:50:54;;;;;;;1.52;0.80;;;21.90;46.10;;;;;;4120692;28;20162;-57
2022/11/16 06:53:18;;;;;;;3.20;0.93;;;21.90;46.00;;;;;;4126789;28;20029;-57
2022/11/16 06:55:41;;;;;;;1.50;0.60;;;21.90;46.00;;;;;;4138019;28;20078;-55
2022/11/16 06:58:03;;;;;;;1.20;0.88;;;21.90;46.50;;;;;;4138854;28;20081;-55
2022/11/16 07:00:28;;;;;;;1.05;0.63;;;21.90;45.90;;;;;;4138331;28;20511;-54
2022/11/16 07:02:58;;;;;;;2.80;0.60;;;21.90;45.80;;;;;;4144520;28;20029;-56
2022/11/16 07:05:21;;;;;;;1.58;0.63;;;21.90;45.80;;;;;;4130125;28;20042;-56
2022/11/16 07:07:43;;;;;;;1.95;0.80;;;21.90;45.80;;;;;;4134351;28;20034;-53
2022/11/16 07:10:07;;;;;;;0.55;0.50;;;21.90;45.80;;;;;;4129698;28;20049;-54
2022/11/16 07:12:29;;;;;;;1.65;0.50;;;21.90;46.50;;;;;;4130586;28;20489;-54
2022/11/16 07:14:52;;;;;;;1.10;0.63;;;21.90;45.70;;;;;;4127111;28;20104;-53
2022/11/16 07:17:14;;;;;;;1.73;0.70;;;21.80;45.80;;;;;;4128565;28;20532;-56
2022/11/16 07:19:37;;;;;;;1.40;0.60;;;21.80;45.60;;;;;;4127909;28;20042;-53
2022/11/16 07:21:59;;;;;;;0.65;0.30;;;21.80;45.60;;;;;;4123703;28;20040;-54
2022/11/16 07:24:22;;;;;;;1.98;0.73;;;21.80;45.50;;;;;;4113264;28;20030;-54
2022/11/16 07:26:44;;;;;;;0.43;0.38;;;21.80;45.50;;;;;;4131251;28;20049;-52
2022/11/16 07:29:07;;;;;;;1.75;0.57;;;21.80;45.40;;;;;;4131362;28;20061;-58
2022/11/16 07:31:30;;;;;;;3.58;0.63;;;21.70;45.70;;;;;;4125339;28;20843;-56
2022/11/16 07:33:53;;;;;;;1.30;0.82;;;21.70;45.40;;;;;;4129527;28;20293;-55
2022/11/16 07:36:15;;;;;;;0.93;0.50;;;21.70;45.50;;;;;;4125423;28;20073;-52
2022/11/16 07:38:38;;;;;;;1.20;0.50;;;21.70;45.40;;;;;;4132961;28;20030;-57
2022/11/16 07:41:02;;;;;;;1.17;0.50;;;21.70;45.50;;;;;;4131173;28;20164;-54
2022/11/16 07:43:25;;;;;;;1.00;0.40;;;21.70;45.50;;;;;;4130149;28;20038;-55
2022/11/16 07:45:47;;;;;;;1.00;0.52;;;21.70;45.50;;;;;;4130735;28;20070;-48
2022/11/16 07:48:10;;;;;;;4.82;0.60;;;21.60;46.10;;;;;;4133254;28;20433;-55
2022/11/16 07:50:34;;;;;;;1.25;0.43;;;21.60;45.60;;;;;;4132841;28;20563;-56
2022/11/16 07:52:56;;;;;;;1.77;0.63;;;21.50;45.60;;;;;;4120095;28;20150;-54
2022/11/16 07:55:19;;;;;;;0.45;0.30;;;21.60;45.70;;;;;;4130965;28;20033;-56
2022/11/16 07:57:41;;;;;;;1.13;0.60;;;21.50;45.60;;;;;;4135536;28;20046;-57
2022/11/16 08:00:05;;;;;;;1.42;0.60;;;21.50;45.60;;;;;;4132371;28;20404;-54
2022/11/16 08:02:28;;;;;;;0.40;0.40;;;21.50;45.70;;;;;;4133766;28;20077;-55
2022/11/16 08:04:50;;;;;;;0.55;0.45;;;21.50;45.70;;;;;;4128099;28;20081;-53
2022/11/16 08:07:13;;;;;;;0.43;0.43;;;21.50;45.70;;;;;;4135740;28;20033;-56
2022/11/16 08:09:36;;;;;;;1.08;0.47;;;21.50;45.70;;;;;;4132467;28;20038;-55
2022/11/16 08:12:00;;;;;;;0.47;0.30;;;21.50;45.70;;;;;;4133303;28;20584;-52
2022/11/16 08:14:22;;;;;;;0.50;0.40;;;21.40;45.80;;;;;;4133012;28;20595;-52
2022/11/16 08:16:45;;;;;;;0.52;0.40;;;21.40;45.70;;;;;;4129396;28;20103;-52
2022/11/16 08:19:07;;;;;;;2.03;0.75;;;21.40;45.80;;;;;;4124946;28;20536;-55
2022/11/16 08:21:30;;;;;;;0.68;0.38;;;21.40;45.80;;;;;;4120882;28;20029;-55
2022/11/16 08:23:53;;;;;;;1.48;0.50;;;21.40;45.80;;;;;;4129966;28;20493;-51
2022/11/16 08:26:18;;;;;;;1.00;0.50;;;21.30;45.80;;;;;;4128501;28;20439;-51
2022/11/16 08:28:42;;;;;;;1.33;0.70;;;21.30;45.90;;;;;;4126389;28;20088;-53
2022/11/16 08:31:17;;;;;;;0.32;0.30;;;21.30;46.00;;;;;;4126732;28;20564;-54
2022/11/16 08:33:40;;;;;;;1.52;0.80;;;21.30;46.00;;;;;;4123921;28;20104;-50
2022/11/16 08:36:07;;;;;;;0.80;0.55;;;21.30;45.90;;;;;;4129990;28;20474;-49
2022/11/16 08:38:30;;;;;;;1.40;0.50;;;21.30;46.00;;;;;;4127459;28;20841;-51
2022/11/16 08:40:55;;;;;;;2.10;0.60;;;21.20;46.00;;;;;;4123574;28;20104;-52
2022/11/16 08:43:18;;;;;;;1.08;0.50;;;21.20;46.20;;;;;;4122578;28;20037;-54
2022/11/16 08:45:40;;;;;;;0.60;0.60;;;21.20;46.30;;;;;;4125086;28;20037;-53
2022/11/16 08:48:04;;;;;;;0.50;0.50;;;21.20;47.20;;;;;;4111830;28;20314;-52
2022/11/16 08:50:26;;;;;;;1.27;0.65;;;21.20;46.60;;;;;;4127549;28;20225;-50
2022/11/16 08:52:49;;;;;;;1.92;0.65;;;21.20;46.70;;;;;;4124542;28;20092;-53
2022/11/16 08:55:12;;;;;;;1.30;0.52;;;21.20;46.80;;;;;;4127806;28;20129;-55
2022/11/16 08:57:35;;;;;;;0.82;0.52;;;21.10;46.80;;;;;;4128430;28;20074;-49
2022/11/16 08:59:58;;;;;;;2.88;0.70;;;21.10;46.90;;;;;;4128400;28;20038;-53
2022/11/16 09:02:24;;;;;;;2.53;0.50;;;21.10;46.90;;;;;;4128136;28;20172;-53
2022/11/16 09:04:47;;;;;;;1.17;0.70;;;21.10;46.90;;;;;;4128807;28;20044;-52
2022/11/16 09:07:10;;;;;;;1.40;0.60;;;21.10;47.00;;;;;;4127203;28;20084;-51
2022/11/16 09:09:32;;;;;;;1.08;0.65;;;21.10;47.00;;;;;;4125619;28;20430;-54
2022/11/16 09:11:55;;;;;;;0.45;0.40;;;21.00;47.00;;;;;;4121700;28;20079;-52
2022/11/16 09:14:18;;;;;;;1.15;0.68;;;21.00;46.90;;;;;;4127412;28;20073;-50
2022/11/16 09:16:40;;;;;;;0.85;0.50;;;21.10;46.90;;;;;;4126842;28;20429;-47
2022/11/16 09:19:03;;;;;;;1.48;0.52;;;21.00;46.80;;;;;;4125972;28;20480;-54
2022/11/16 09:21:28;;;;;;;1.30;0.50;;;21.00;46.80;;;;;;4126584;28;20423;-53
2022/11/16 09:23:52;;;;;;;0.60;0.40;;;21.00;46.80;;;;;;4123745;28;20042;-53
2022/11/16 09:26:15;;;;;;;1.05;0.50;;;21.00;46.80;;;;;;4128569;28;20054;-48
2022/11/16 09:28:38;;;;;;;0.40;0.40;;;21.00;46.80;;;;;;4127190;28;20128;-55
2022/11/16 09:31:04;;;;;;;0.40;0.40;;;21.00;46.80;;;;;;4126919;28;20046;-50
2022/11/16 09:33:29;;;;;;;0.32;0.30;;;20.90;46.70;;;;;;4125014;28;20078;-52
2022/11/16 09:35:51;;;;;;;0.50;0.50;;;20.90;46.70;;;;;;4123663;28;20049;-53
2022/11/16 09:38:14;;;;;;;0.85;0.40;;;20.90;46.70;;;;;;4123505;28;20070;-52
2022/11/16 09:40:46;;;;;;;0.68;0.40;;;20.90;46.60;;;;;;4132311;28;20046;-49
2022/11/16 09:43:40;;;;;;;0.63;0.45;;;20.90;46.60;;;;;;4130794;28;20034;-52
2022/11/16 09:46:25;;;;;;;0.52;0.43;;;20.90;46.60;;;;;;4129921;28;20046;-54
2022/11/16 09:48:47;;;;;;;;;;;20.80;46.50;;;;;;4127587;28;20041;-55
2022/11/16 09:51:15;;;;;;;0.93;0.45;;;20.80;46.70;;;;;;4129426;28;19976;-53
2022/11/16 09:53:50;;;;;;;0.90;0.47;;;20.80;47.20;;;;;;4123339;28;20044;-61
2022/11/16 09:56:39;;;;;;;1.50;0.43;;;20.80;46.60;;;;;;4110238;28;20061;-50
2022/11/16 09:59:29;;;;;;;1.35;0.40;;;20.80;46.60;;;;;;4127420;28;20042;-55
2022/11/16 10:02:43;;;;;;;0.50;0.38;;;20.80;46.60;;;;;;4119287;28;20053;-54
2022/11/16 10:05:09;;;;;;;0.65;0.47;;;20.70;46.60;;;;;;4097992;28;21087;-53
2022/11/16 10:07:44;;;;;;;0.68;0.63;;;20.70;46.60;;;;;;4133307;28;20049;-53
2022/11/16 10:10:23;;;;;;;1.30;0.50;;;20.70;46.60;;;;;;4132285;28;20042;-52
2022/11/16 10:12:56;;;;;;;0.77;0.57;;;20.70;46.50;;;;;;4132232;28;20046;-52
2022/11/16 10:15:52;;;;;;;0.95;0.70;;;20.70;46.70;;;;;;4132324;28;20049;-52
2022/11/16 10:18:40;;;;;;;1.30;0.70;;;20.60;46.60;;;;;;4131866;28;20042;-54
2022/11/16 10:21:13;;;;;;;0.63;0.43;;;20.60;46.60;;;;;;4132871;28;20041;-49
2022/11/16 10:23:54;;;;;;;0.55;0.40;;;20.60;46.50;;;;;;4128559;28;20084;-56
2022/11/16 10:26:28;;;;;;;0.80;0.50;;;20.60;46.60;;;;;;4130736;28;20093;-51
2022/11/16 10:29:09;;;;;;;0.75;0.40;;;20.60;46.70;;;;;;4117932;28;20078;-54
2022/11/16 10:31:50;;;;;;;0.60;0.50;;;20.60;46.60;;;;;;4116344;28;20085;-55
2022/11/16 10:34:24;;;;;;;2.25;0.60;;;20.50;46.70;;;;;;4132350;28;20076;-57
2022/11/16 10:36:47;;;;;;;0.90;0.50;;;20.50;46.70;;;;;;4132916;28;20038;-54
2022/11/16 10:39:16;;;;;;;0.50;0.50;;;20.50;46.70;;;;;;4131876;28;20516;-54
2022/11/16 10:41:50;;;;;;;0.80;0.60;;;20.50;46.80;;;;;;4132444;28;20120;-55
2022/11/16 10:44:17;;;;;;;0.57;0.50;;;20.50;46.80;;;;;;4122435;28;20037;-53
2022/11/16 10:46:45;;;;;;;0.60;0.40;;;20.50;46.80;;;;;;4128667;28;20038;-56
2022/11/16 10:49:28;;;;;;;1.40;0.75;;;20.50;46.80;;;;;;4121970;28;20034;-55
2022/11/16 10:51:51;;;;;;;0.68;0.68;;;20.40;46.80;;;;;;4125066;28;20395;-56
2022/11/16 10:54:17;;;;;;;1.55;0.55;;;20.40;46.80;;;;;;4124388;28;20046;-54
2022/11/16 10:56:45;;;;;;;0.80;0.50;;;20.40;46.80;;;;;;4123239;28;20377;-49
2022/11/16 10:59:11;;;;;;;1.25;0.40;;;20.40;46.90;;;;;;4122455;28;20037;-51
2022/11/16 11:01:57;;;;;;;3.97;0.82;;;20.40;46.80;;;;;;4124262;28;20366;-53
2022/11/16 11:04:27;;;;;;;1.38;0.77;;;20.40;47.00;;;;;;4125725;28;20042;-53
2022/11/16 11:06:54;;;;;;;0.75;0.40;;;20.40;47.20;;;;;;4125610;28;20046;-47
2022/11/16 11:09:22;;;;;;;0.88;0.60;;;20.40;47.40;;;;;;4126907;28;20046;-53
2022/11/16 11:14:41;;;;;;;0.45;0.40;;;20.30;47.50;;;;;;4111630;28;20046;-55
2022/11/16 11:17:17;;;;;;;1.48;0.60;;;20.30;47.50;;;;;;4123717;28;20038;-53
2022/11/16 11:19:40;;;;;;;4.25;1.05;;;20.30;47.30;;;;;;4120179;28;20552;-53
2022/11/16 11:22:03;;;;;;;8.02;1.00;;;20.30;47.70;;;;;;4123738;28;20073;-50
2022/11/16 11:24:27;;;;;;;4.72;0.73;;;20.30;47.90;;;;;;4123673;28;20041;-51
2022/11/16 11:26:57;;;;;;;3.83;0.88;;;20.30;48.20;;;;;;4123138;28;20049;-62
2022/11/16 11:29:22;;;;;;;1.50;0.70;;;20.30;48.20;;;;;;4126355;28;20480;-49
2022/11/16 11:31:51;;;;;;;2.65;0.90;;;20.40;48.30;;;;;;4128085;28;20042;-52
2022/11/16 11:34:25;;;;;;;2.13;0.60;;;20.40;48.40;;;;;;4130618;28;20673;-52
2022/11/16 11:37:02;;;;;;;5.00;0.70;;;20.40;48.60;;;;;;4126535;28;20038;-57
2022/11/16 11:39:27;;;;;;;2.90;0.88;;;20.40;48.60;;;;;;4132214;28;20950;-60
2022/11/16 11:42:15;;;;;;;2.78;0.75;;;20.40;48.70;;;;;;4131981;28;20080;-53
2022/11/16 11:45:01;;;;;;;2.83;0.82;;;20.40;48.80;;;;;;4134616;28;20056;-54
2022/11/16 11:47:33;;;;;;;5.75;0.95;;;20.40;48.80;;;;;;4129044;28;20516;-50
2022/11/16 11:50:40;;;;;;;3.80;0.75;;;20.40;48.90;;;;;;4113214;28;20026;-54
2022/11/16 11:53:06;;;;;;;1.23;0.60;;;20.40;49.00;;;;;;4128504;28;20088;-53
2022/11/16 11:55:29;;;;;;;3.05;0.50;;;20.50;48.90;;;;;;4130780;28;20564;-55
2022/11/16 11:57:55;;;;;;;2.63;0.60;;;20.50;48.90;;;;;;4124548;28;20096;-53
2022/11/16 12:00:18;;;;;;;0.60;0.45;;;20.50;48.90;;;;;;4127136;28;20065;-50
2022/11/16 12:03:07;;;;;;;0.85;0.40;;;20.50;48.80;;;;;;4126730;28;20046;-52
2022/11/16 12:06:02;;;;;;;2.05;0.50;;;20.50;48.90;;;;;;4126482;28;20042;-53
2022/11/16 12:08:36;;;;;;;3.97;0.63;;;20.40;49.00;;;;;;4125360;28;20497;-52
2022/11/16 12:11:07;;;;;;;1.75;0.55;;;20.50;49.10;;;;;;4122260;28;20057;-44
2022/11/16 12:14:00;;;;;;;2.05;0.70;;;20.40;49.00;;;;;;4126183;28;20853;-55
2022/11/16 12:16:52;;;;;;;1.73;0.80;;;20.40;49.20;;;;;;4127430;28;20041;-56
2022/11/16 12:19:21;;;;;;;0.68;0.50;;;20.40;49.10;;;;;;4125965;28;20050;-54
2022/11/16 12:21:52;;;;;;;8.23;1.10;;;20.40;49.30;;;;;;4131741;28;20152;-49
2022/11/16 12:24:21;;;;;;;7.40;0.93;;;20.40;49.30;;;;;;4133697;28;20095;-49
2022/11/16 12:27:07;;;;;;;6.65;0.90;;;20.40;49.40;;;;;;4118771;28;20050;-53
2022/11/16 12:29:42;;;;;;;3.75;0.40;;;20.40;49.20;;;;;;4134233;28;20072;-53
2022/11/16 12:32:16;;;;;;;4.13;0.50;;;20.40;49.20;;;;;;4131682;28;20053;-52
2022/11/16 12:35:16;;;;;;;3.05;0.50;;;20.40;49.20;;;;;;4133564;28;20042;-55
2022/11/16 12:37:59;;;;;;;1.02;0.65;;;20.40;49.20;;;;;;4130778;28;20164;-50
2022/11/16 12:40:36;;;;;;;2.17;0.50;;;20.40;49.30;;;;;;4134057;28;20054;-48
2022/11/16 12:42:59;;;;;;;1.75;0.77;;;20.30;49.20;;;;;;4132254;28;20053;-51
2022/11/16 12:45:32;;;;;;;2.63;0.40;;;20.30;49.30;;;;;;4133555;28;20449;-48
2022/11/16 12:48:25;;;;;;;0.45;0.35;;;20.30;49.30;;;;;;4132464;28;20069;-48
2022/11/16 12:51:25;;;;;;;1.13;0.47;;;20.30;49.40;;;;;;4113575;28;20050;-48
2022/11/16 12:54:07;;;;;;;0.82;0.50;;;20.30;49.40;;;;;;4132977;28;20453;-52
2022/11/16 12:56:41;;;;;;;0.65;0.40;;;20.30;49.40;;;;;;4133726;28;20410;-51
2022/11/16 12:59:20;;;;;;;1.05;0.45;;;20.30;49.50;;;;;;4134428;28;20041;-46
2022/11/16 13:01:58;;;;;;;0.38;0.35;;;20.20;49.40;;;;;;4133360;28;20045;-49
2022/11/16 13:04:47;;;;;;;0.68;0.45;;;20.20;49.50;;;;;;4132985;28;20069;-52
2022/11/16 13:07:25;;;;;;;0.82;0.55;;;20.20;49.50;;;;;;4127893;28;20045;-54
2022/11/16 13:10:19;;;;;;;0.77;0.43;;;20.20;49.50;;;;;;4130871;28;20042;-55
2022/11/16 13:12:43;;;;;;;0.40;0.40;;;20.20;49.60;;;;;;4133442;28;20046;-56
2022/11/16 13:15:18;;;;;;;1.25;0.40;;;20.20;49.60;;;;;;4133927;28;20394;-53
2022/11/16 13:17:50;;;;;;;0.30;0.30;;;20.20;49.60;;;;;;4132213;28;20542;-52
2022/11/16 13:20:35;;;;;;;0.35;0.30;;;20.10;50.20;;;;;;4128681;28;20205;-52
2022/11/16 13:23:35;;;;;;;1.35;0.57;;;20.10;49.60;;;;;;4132460;28;20100;-49
2022/11/16 13:26:11;;;;;;;0.28;0.28;;;20.10;49.60;;;;;;4130656;28;20055;-56
2022/11/16 13:28:56;;;;;;;0.30;0.30;;;20.10;49.60;;;;;;4132100;28;20468;-47
2022/11/16 13:31:32;;;;;;;0.30;0.30;;;20.10;49.70;;;;;;4130557;28;20484;-52
2022/11/16 13:34:02;;;;;;;0.30;0.30;;;20.10;49.80;;;;;;4132177;28;20054;-50